sensor_id;sensor_type;location;lat;lon;timestamp;P1;P2;P0
55043;PMS5003;54902;50.420;18.854;2023-04-24T00:00:09;10;10;8
55043;PMS5003;54902;50.420;18.854;2023-04-24T00:00:44;10;10;8
55043;PMS5003;54902;50.420;18.854;2023-04-24T00:01:15;10;10;8
55043;PMS5003;54902;50.420;18.854;2023-04-24T00:01:47;16;16;13
55043;PMS5003;54902;50.420;18.854;2023-04-24T00:02:18;16;16;13
55043;PMS5003;54902;50.420;18.854;2023-04-24T00:02:49;16;16;13
55043;PMS5003;54902;50.420;18.854;2023-04-24T00:03:20;16;16;13
55043;PMS5003;54902;50.420;18.854;2023-04-24T00:03:52;16;16;13
55043;PMS5003;54902;50.420;18.854;2023-04-24T00:04:23;16;16;13
55043;PMS5003;54902;50.420;18.854;2023-04-24T00:04:56;16;16;13
55043;PMS5003;54902;50.420;18.854;2023-04-24T00:05:27;17;17;12
55043;PMS5003;54902;50.420;18.854;2023-04-24T00:05:58;17;17;12
55043;PMS5003;54902;50.420;18.854;2023-04-24T00:06:29;17;17;12
55043;PMS5003;54902;50.420;18.854;2023-04-24T00:07:04;32;32;20
55043;PMS5003;54902;50.420;18.854;2023-04-24T00:07:37;32;32;20
55043;PMS5003;54902;50.420;18.854;2023-04-24T00:08:08;32;32;20
55043;PMS5003;54902;50.420;18.854;2023-04-24T00:08:38;32;32;20
55043;PMS5003;54902;50.420;18.854;2023-04-24T00:09:09;32;32;20
55043;PMS5003;54902;50.420;18.854;2023-04-24T00:09:41;32;32;20
55043;PMS5003;54902;50.420;18.854;2023-04-24T00:10:11;32;32;20
55043;PMS5003;54902;50.420;18.854;2023-04-24T00:10:43;32;32;20
55043;PMS5003;54902;50.420;18.854;2023-04-24T00:11:14;32;32;20
55043;PMS5003;54902;50.420;18.854;2023-04-24T00:11:45;32;32;20
55043;PMS5003;54902;50.420;18.854;2023-04-24T00:12:16;43;42;26
55043;PMS5003;54902;50.420;18.854;2023-04-24T00:12:47;43;42;26
55043;PMS5003;54902;50.420;18.854;2023-04-24T00:13:18;32;31;21
55043;PMS5003;54902;50.420;18.854;2023-04-24T00:13:49;32;31;21
55043;PMS5003;54902;50.420;18.854;2023-04-24T00:14:20;32;31;21
55043;PMS5003;54902;50.420;18.854;2023-04-24T00:14:51;32;31;21
55043;PMS5003;54902;50.420;18.854;2023-04-24T00:15:22;32;31;21
55043;PMS5003;54902;50.420;18.854;2023-04-24T00:15:53;32;31;21
55043;PMS5003;54902;50.420;18.854;2023-04-24T00:16:24;32;31;21
55043;PMS5003;54902;50.420;18.854;2023-04-24T00:16:55;32;31;21
55043;PMS5003;54902;50.420;18.854;2023-04-24T00:17:26;42;41;28
55043;PMS5003;54902;50.420;18.854;2023-04-24T00:17:57;42;41;28
55043;PMS5003;54902;50.420;18.854;2023-04-24T00:18:28;42;41;28
55043;PMS5003;54902;50.420;18.854;2023-04-24T00:18:59;42;41;28
55043;PMS5003;54902;50.420;18.854;2023-04-24T00:19:31;42;41;28
55043;PMS5003;54902;50.420;18.854;2023-04-24T00:20:02;42;41;28
55043;PMS5003;54902;50.420;18.854;2023-04-24T00:20:37;42;41;28
55043;PMS5003;54902;50.420;18.854;2023-04-24T00:21:07;42;41;28
55043;PMS5003;54902;50.420;18.854;2023-04-24T00:21:39;42;41;28
55043;PMS5003;54902;50.420;18.854;2023-04-24T00:22:11;42;41;28
55043;PMS5003;54902;50.420;18.854;2023-04-24T00:22:44;44;43;29
55043;PMS5003;54902;50.420;18.854;2023-04-24T00:23:15;44;43;29
55043;PMS5003;54902;50.420;18.854;2023-04-24T00:23:46;44;43;29
55043;PMS5003;54902;50.420;18.854;2023-04-24T00:24:17;44;43;29
55043;PMS5003;54902;50.420;18.854;2023-04-24T00:24:48;44;43;29
55043;PMS5003;54902;50.420;18.854;2023-04-24T00:25:19;44;43;29
55043;PMS5003;54902;50.420;18.854;2023-04-24T00:25:50;44;43;29
55043;PMS5003;54902;50.420;18.854;2023-04-24T00:26:21;44;43;29
55043;PMS5003;54902;50.420;18.854;2023-04-24T00:26:53;44;43;29
55043;PMS5003;54902;50.420;18.854;2023-04-24T00:27:24;44;43;29
55043;PMS5003;54902;50.420;18.854;2023-04-24T00:27:55;44;43;29
55043;PMS5003;54902;50.420;18.854;2023-04-24T00:28:26;44;43;29
55043;PMS5003;54902;50.420;18.854;2023-04-24T00:28:57;44;43;29
55043;PMS5003;54902;50.420;18.854;2023-04-24T00:29:28;44;43;29
55043;PMS5003;54902;50.420;18.854;2023-04-24T00:29:59;44;43;29
55043;PMS5003;54902;50.420;18.854;2023-04-24T00:30:30;44;43;29
55043;PMS5003;54902;50.420;18.854;2023-04-24T00:31:01;44;43;29
55043;PMS5003;54902;50.420;18.854;2023-04-24T00:31:32;44;43;29
55043;PMS5003;54902;50.420;18.854;2023-04-24T00:32:05;44;43;29
55043;PMS5003;54902;50.420;18.854;2023-04-24T00:32:36;44;43;29
55043;PMS5003;54902;50.420;18.854;2023-04-24T00:33:06;44;43;29
55043;PMS5003;54902;50.420;18.854;2023-04-24T00:33:37;44;43;29
55043;PMS5003;54902;50.420;18.854;2023-04-24T00:34:08;44;43;29
55043;PMS5003;54902;50.420;18.854;2023-04-24T00:34:42;44;43;29
55043;PMS5003;54902;50.420;18.854;2023-04-24T00:35:13;44;43;29
55043;PMS5003;54902;50.420;18.854;2023-04-24T00:35:45;44;43;29
55043;PMS5003;54902;50.420;18.854;2023-04-24T00:36:16;44;43;29
55043;PMS5003;54902;50.420;18.854;2023-04-24T00:36:50;44;43;29
55043;PMS5003;54902;50.420;18.854;2023-04-24T00:37:22;44;43;29
55043;PMS5003;54902;50.420;18.854;2023-04-24T00:37:53;44;43;29
55043;PMS5003;54902;50.420;18.854;2023-04-24T00:38:25;44;43;29
55043;PMS5003;54902;50.420;18.854;2023-04-24T00:38:56;44;43;29
55043;PMS5003;54902;50.420;18.854;2023-04-24T00:39:27;44;43;29
55043;PMS5003;54902;50.420;18.854;2023-04-24T00:39:58;44;43;29
55043;PMS5003;54902;50.420;18.854;2023-04-24T00:40:29;44;43;29
55043;PMS5003;54902;50.420;18.854;2023-04-24T00:41:00;44;43;29
55043;PMS5003;54902;50.420;18.854;2023-04-24T00:41:32;44;43;29
55043;PMS5003;54902;50.420;18.854;2023-04-24T00:42:03;44;43;29
55043;PMS5003;54902;50.420;18.854;2023-04-24T00:42:36;37;37;25
55043;PMS5003;54902;50.420;18.854;2023-04-24T00:43:07;37;37;25
55043;PMS5003;54902;50.420;18.854;2023-04-24T00:43:38;23;23;15
55043;PMS5003;54902;50.420;18.854;2023-04-24T00:44:10;23;23;15
55043;PMS5003;54902;50.420;18.854;2023-04-24T00:44:41;23;23;15
55043;PMS5003;54902;50.420;18.854;2023-04-24T00:45:12;23;23;15
55043;PMS5003;54902;50.420;18.854;2023-04-24T00:45:43;23;23;15
55043;PMS5003;54902;50.420;18.854;2023-04-24T00:46:14;23;23;15
55043;PMS5003;54902;50.420;18.854;2023-04-24T00:46:47;23;23;15
55043;PMS5003;54902;50.420;18.854;2023-04-24T00:47:24;30;29;18
55043;PMS5003;54902;50.420;18.854;2023-04-24T00:47:56;30;29;18
55043;PMS5003;54902;50.420;18.854;2023-04-24T00:48:27;30;29;18
55043;PMS5003;54902;50.420;18.854;2023-04-24T00:48:58;34;32;22
55043;PMS5003;54902;50.420;18.854;2023-04-24T00:49:30;34;32;22
55043;PMS5003;54902;50.420;18.854;2023-04-24T00:50:04;34;32;22
55043;PMS5003;54902;50.420;18.854;2023-04-24T00:50:36;34;32;22
55043;PMS5003;54902;50.420;18.854;2023-04-24T00:51:09;34;32;22
55043;PMS5003;54902;50.420;18.854;2023-04-24T00:51:40;34;32;22
55043;PMS5003;54902;50.420;18.854;2023-04-24T00:52:15;34;32;22
55043;PMS5003;54902;50.420;18.854;2023-04-24T00:52:48;34;32;22
55043;PMS5003;54902;50.420;18.854;2023-04-24T00:53:19;34;32;22
55043;PMS5003;54902;50.420;18.854;2023-04-24T00:53:51;34;32;22
55043;PMS5003;54902;50.420;18.854;2023-04-24T00:54:22;43;40;28
55043;PMS5003;54902;50.420;18.854;2023-04-24T00:54:53;43;40;28
55043;PMS5003;54902;50.420;18.854;2023-04-24T00:55:25;43;40;28
55043;PMS5003;54902;50.420;18.854;2023-04-24T00:55:56;43;40;28
55043;PMS5003;54902;50.420;18.854;2023-04-24T00:56:28;43;40;28
55043;PMS5003;54902;50.420;18.854;2023-04-24T00:56:59;43;40;28
55043;PMS5003;54902;50.420;18.854;2023-04-24T00:57:32;43;40;28
55043;PMS5003;54902;50.420;18.854;2023-04-24T00:58:03;43;40;28
55043;PMS5003;54902;50.420;18.854;2023-04-24T00:58:35;43;40;28
55043;PMS5003;54902;50.420;18.854;2023-04-24T00:59:06;43;40;28
55043;PMS5003;54902;50.420;18.854;2023-04-24T00:59:37;43;40;28
55043;PMS5003;54902;50.420;18.854;2023-04-24T01:00:11;43;40;28
55043;PMS5003;54902;50.420;18.854;2023-04-24T01:00:43;43;40;28
55043;PMS5003;54902;50.420;18.854;2023-04-24T01:01:16;43;40;28
55043;PMS5003;54902;50.420;18.854;2023-04-24T01:01:51;43;40;28
55043;PMS5003;54902;50.420;18.854;2023-04-24T01:02:22;31;30;20
55043;PMS5003;54902;50.420;18.854;2023-04-24T01:02:54;31;30;20
55043;PMS5003;54902;50.420;18.854;2023-04-24T01:03:27;31;30;20
55043;PMS5003;54902;50.420;18.854;2023-04-24T01:04:01;31;30;20
55043;PMS5003;54902;50.420;18.854;2023-04-24T01:04:32;31;30;20
55043;PMS5003;54902;50.420;18.854;2023-04-24T01:05:03;29;29;18
55043;PMS5003;54902;50.420;18.854;2023-04-24T01:05:35;29;29;18
55043;PMS5003;54902;50.420;18.854;2023-04-24T01:06:06;29;29;18
55043;PMS5003;54902;50.420;18.854;2023-04-24T01:06:38;24;24;14
55043;PMS5003;54902;50.420;18.854;2023-04-24T01:07:10;24;24;14
55043;PMS5003;54902;50.420;18.854;2023-04-24T01:07:43;24;24;14
55043;PMS5003;54902;50.420;18.854;2023-04-24T01:08:17;24;24;14
55043;PMS5003;54902;50.420;18.854;2023-04-24T01:08:49;24;24;14
55043;PMS5003;54902;50.420;18.854;2023-04-24T01:09:20;24;24;14
55043;PMS5003;54902;50.420;18.854;2023-04-24T01:09:53;24;24;14
55043;PMS5003;54902;50.420;18.854;2023-04-24T01:10:24;25;25;15
55043;PMS5003;54902;50.420;18.854;2023-04-24T01:10:57;25;25;15
55043;PMS5003;54902;50.420;18.854;2023-04-24T01:11:28;25;25;15
55043;PMS5003;54902;50.420;18.854;2023-04-24T01:12:00;25;25;15
55043;PMS5003;54902;50.420;18.854;2023-04-24T01:12:32;25;25;15
55043;PMS5003;54902;50.420;18.854;2023-04-24T01:13:03;25;25;15
55043;PMS5003;54902;50.420;18.854;2023-04-24T01:13:34;25;25;15
55043;PMS5003;54902;50.420;18.854;2023-04-24T01:14:05;25;25;15
55043;PMS5003;54902;50.420;18.854;2023-04-24T01:14:36;25;25;15
55043;PMS5003;54902;50.420;18.854;2023-04-24T01:15:08;25;25;15
55043;PMS5003;54902;50.420;18.854;2023-04-24T01:15:40;27;27;16
55043;PMS5003;54902;50.420;18.854;2023-04-24T01:16:11;27;27;16
55043;PMS5003;54902;50.420;18.854;2023-04-24T01:16:42;27;27;16
55043;PMS5003;54902;50.420;18.854;2023-04-24T01:17:13;27;27;16
55043;PMS5003;54902;50.420;18.854;2023-04-24T01:17:44;27;27;16
55043;PMS5003;54902;50.420;18.854;2023-04-24T01:18:15;27;27;16
55043;PMS5003;54902;50.420;18.854;2023-04-24T01:18:46;27;27;16
55043;PMS5003;54902;50.420;18.854;2023-04-24T01:19:18;27;27;16
55043;PMS5003;54902;50.420;18.854;2023-04-24T01:19:49;27;27;16
55043;PMS5003;54902;50.420;18.854;2023-04-24T01:20:24;27;27;16
55043;PMS5003;54902;50.420;18.854;2023-04-24T01:20:57;27;27;16
55043;PMS5003;54902;50.420;18.854;2023-04-24T01:21:29;27;27;16
55043;PMS5003;54902;50.420;18.854;2023-04-24T01:22:11;27;27;16
55043;PMS5003;54902;50.420;18.854;2023-04-24T01:22:47;27;27;16
55043;PMS5003;54902;50.420;18.854;2023-04-24T01:23:18;27;27;16
55043;PMS5003;54902;50.420;18.854;2023-04-24T01:23:49;20;20;13
55043;PMS5003;54902;50.420;18.854;2023-04-24T01:24:21;20;20;13
55043;PMS5003;54902;50.420;18.854;2023-04-24T01:24:52;20;20;13
55043;PMS5003;54902;50.420;18.854;2023-04-24T01:25:24;20;20;13
55043;PMS5003;54902;50.420;18.854;2023-04-24T01:25:58;20;20;13
55043;PMS5003;54902;50.420;18.854;2023-04-24T01:26:30;23;23;17
55043;PMS5003;54902;50.420;18.854;2023-04-24T01:27:01;23;23;17
55043;PMS5003;54902;50.420;18.854;2023-04-24T01:27:32;23;23;17
55043;PMS5003;54902;50.420;18.854;2023-04-24T01:28:03;23;23;17
55043;PMS5003;54902;50.420;18.854;2023-04-24T01:28:34;23;23;17
55043;PMS5003;54902;50.420;18.854;2023-04-24T01:29:05;23;23;17
55043;PMS5003;54902;50.420;18.854;2023-04-24T01:29:37;23;23;17
55043;PMS5003;54902;50.420;18.854;2023-04-24T01:30:08;23;23;17
55043;PMS5003;54902;50.420;18.854;2023-04-24T01:30:40;23;23;17
55043;PMS5003;54902;50.420;18.854;2023-04-24T01:31:11;23;23;17
55043;PMS5003;54902;50.420;18.854;2023-04-24T01:31:42;28;28;21
55043;PMS5003;54902;50.420;18.854;2023-04-24T01:32:13;28;28;21
55043;PMS5003;54902;50.420;18.854;2023-04-24T01:32:44;28;28;21
55043;PMS5003;54902;50.420;18.854;2023-04-24T01:33:16;28;28;21
55043;PMS5003;54902;50.420;18.854;2023-04-24T01:33:48;28;28;21
55043;PMS5003;54902;50.420;18.854;2023-04-24T01:34:20;28;28;21
55043;PMS5003;54902;50.420;18.854;2023-04-24T01:34:51;28;28;21
55043;PMS5003;54902;50.420;18.854;2023-04-24T01:35:22;28;28;21
55043;PMS5003;54902;50.420;18.854;2023-04-24T01:35:53;28;28;21
55043;PMS5003;54902;50.420;18.854;2023-04-24T01:36:25;28;28;21
55043;PMS5003;54902;50.420;18.854;2023-04-24T01:36:59;28;28;21
55043;PMS5003;54902;50.420;18.854;2023-04-24T01:37:31;28;28;21
55043;PMS5003;54902;50.420;18.854;2023-04-24T01:38:03;28;28;21
55043;PMS5003;54902;50.420;18.854;2023-04-24T01:38:35;28;28;21
55043;PMS5003;54902;50.420;18.854;2023-04-24T01:39:06;28;28;21
55043;PMS5003;54902;50.420;18.854;2023-04-24T01:39:37;28;28;21
55043;PMS5003;54902;50.420;18.854;2023-04-24T01:40:09;28;28;21
55043;PMS5003;54902;50.420;18.854;2023-04-24T01:40:40;28;28;21
55043;PMS5003;54902;50.420;18.854;2023-04-24T01:41:11;28;28;21
55043;PMS5003;54902;50.420;18.854;2023-04-24T01:41:42;28;28;21
55043;PMS5003;54902;50.420;18.854;2023-04-24T01:42:13;28;28;21
55043;PMS5003;54902;50.420;18.854;2023-04-24T01:42:45;17;17;13
55043;PMS5003;54902;50.420;18.854;2023-04-24T01:43:16;17;17;13
55043;PMS5003;54902;50.420;18.854;2023-04-24T01:43:47;17;17;13
55043;PMS5003;54902;50.420;18.854;2023-04-24T01:44:19;17;17;13
55043;PMS5003;54902;50.420;18.854;2023-04-24T01:44:50;17;17;13
55043;PMS5003;54902;50.420;18.854;2023-04-24T01:45:21;17;17;13
55043;PMS5003;54902;50.420;18.854;2023-04-24T01:45:52;17;17;13
55043;PMS5003;54902;50.420;18.854;2023-04-24T01:46:23;17;17;13
55043;PMS5003;54902;50.420;18.854;2023-04-24T01:46:55;17;17;13
55043;PMS5003;54902;50.420;18.854;2023-04-24T01:47:26;30;30;21
55043;PMS5003;54902;50.420;18.854;2023-04-24T01:47:57;30;30;21
55043;PMS5003;54902;50.420;18.854;2023-04-24T01:48:29;30;30;21
55043;PMS5003;54902;50.420;18.854;2023-04-24T01:49:01;30;30;21
55043;PMS5003;54902;50.420;18.854;2023-04-24T01:49:32;30;30;21
55043;PMS5003;54902;50.420;18.854;2023-04-24T01:50:04;30;30;21
55043;PMS5003;54902;50.420;18.854;2023-04-24T01:50:35;30;30;21
55043;PMS5003;54902;50.420;18.854;2023-04-24T01:51:06;30;30;21
55043;PMS5003;54902;50.420;18.854;2023-04-24T01:51:37;30;30;21
55043;PMS5003;54902;50.420;18.854;2023-04-24T01:52:08;27;27;19
55043;PMS5003;54902;50.420;18.854;2023-04-24T01:52:39;18;18;14
55043;PMS5003;54902;50.420;18.854;2023-04-24T01:53:10;18;18;14
55043;PMS5003;54902;50.420;18.854;2023-04-24T01:53:42;18;18;14
55043;PMS5003;54902;50.420;18.854;2023-04-24T01:54:13;18;18;14
55043;PMS5003;54902;50.420;18.854;2023-04-24T01:54:44;18;18;14
55043;PMS5003;54902;50.420;18.854;2023-04-24T01:55:15;18;18;14
55043;PMS5003;54902;50.420;18.854;2023-04-24T01:55:46;18;18;14
55043;PMS5003;54902;50.420;18.854;2023-04-24T01:56:17;18;18;14
55043;PMS5003;54902;50.420;18.854;2023-04-24T01:56:48;18;18;14
55043;PMS5003;54902;50.420;18.854;2023-04-24T01:57:20;18;18;14
55043;PMS5003;54902;50.420;18.854;2023-04-24T01:57:52;25;25;19
55043;PMS5003;54902;50.420;18.854;2023-04-24T01:58:26;25;25;19
55043;PMS5003;54902;50.420;18.854;2023-04-24T01:58:57;25;25;19
55043;PMS5003;54902;50.420;18.854;2023-04-24T01:59:29;25;25;19
55043;PMS5003;54902;50.420;18.854;2023-04-24T02:00:03;25;25;19
55043;PMS5003;54902;50.420;18.854;2023-04-24T02:00:41;25;25;19
55043;PMS5003;54902;50.420;18.854;2023-04-24T02:01:19;25;25;19
55043;PMS5003;54902;50.420;18.854;2023-04-24T02:01:50;25;25;19
55043;PMS5003;54902;50.420;18.854;2023-04-24T02:02:21;25;25;19
55043;PMS5003;54902;50.420;18.854;2023-04-24T02:02:54;25;25;19
55043;PMS5003;54902;50.420;18.854;2023-04-24T02:03:26;25;25;19
55043;PMS5003;54902;50.420;18.854;2023-04-24T02:03:57;25;25;19
55043;PMS5003;54902;50.420;18.854;2023-04-24T02:04:28;25;25;19
55043;PMS5003;54902;50.420;18.854;2023-04-24T02:04:59;25;25;19
55043;PMS5003;54902;50.420;18.854;2023-04-24T02:05:30;25;25;19
55043;PMS5003;54902;50.420;18.854;2023-04-24T02:06:01;24;24;18
55043;PMS5003;54902;50.420;18.854;2023-04-24T02:06:32;24;24;18
55043;PMS5003;54902;50.420;18.854;2023-04-24T02:07:02;24;24;18
55043;PMS5003;54902;50.420;18.854;2023-04-24T02:07:33;24;24;18
55043;PMS5003;54902;50.420;18.854;2023-04-24T02:08:04;24;24;18
55043;PMS5003;54902;50.420;18.854;2023-04-24T02:08:35;36;35;24
55043;PMS5003;54902;50.420;18.854;2023-04-24T02:09:06;36;35;24
55043;PMS5003;54902;50.420;18.854;2023-04-24T02:09:38;36;35;24
55043;PMS5003;54902;50.420;18.854;2023-04-24T02:10:09;36;35;24
55043;PMS5003;54902;50.420;18.854;2023-04-24T02:10:40;36;35;24
55043;PMS5003;54902;50.420;18.854;2023-04-24T02:11:11;36;35;24
55043;PMS5003;54902;50.420;18.854;2023-04-24T02:11:42;36;35;24
55043;PMS5003;54902;50.420;18.854;2023-04-24T02:12:13;36;35;24
55043;PMS5003;54902;50.420;18.854;2023-04-24T02:12:50;36;35;24
55043;PMS5003;54902;50.420;18.854;2023-04-24T02:13:21;36;35;24
55043;PMS5003;54902;50.420;18.854;2023-04-24T02:13:52;42;40;28
55043;PMS5003;54902;50.420;18.854;2023-04-24T02:14:23;42;40;28
55043;PMS5003;54902;50.420;18.854;2023-04-24T02:14:55;42;40;28
55043;PMS5003;54902;50.420;18.854;2023-04-24T02:15:26;42;40;28
55043;PMS5003;54902;50.420;18.854;2023-04-24T02:16:00;42;40;28
55043;PMS5003;54902;50.420;18.854;2023-04-24T02:16:31;42;40;28
55043;PMS5003;54902;50.420;18.854;2023-04-24T02:17:03;42;40;28
55043;PMS5003;54902;50.420;18.854;2023-04-24T02:17:35;42;40;28
55043;PMS5003;54902;50.420;18.854;2023-04-24T02:18:06;42;40;28
55043;PMS5003;54902;50.420;18.854;2023-04-24T02:18:37;42;40;28
55043;PMS5003;54902;50.420;18.854;2023-04-24T02:19:08;42;40;28
55043;PMS5003;54902;50.420;18.854;2023-04-24T02:19:40;42;40;28
55043;PMS5003;54902;50.420;18.854;2023-04-24T02:20:10;42;40;28
55043;PMS5003;54902;50.420;18.854;2023-04-24T02:20:41;42;40;28
55043;PMS5003;54902;50.420;18.854;2023-04-24T02:21:12;42;40;28
55043;PMS5003;54902;50.420;18.854;2023-04-24T02:21:43;42;40;28
55043;PMS5003;54902;50.420;18.854;2023-04-24T02:22:14;42;40;28
55043;PMS5003;54902;50.420;18.854;2023-04-24T02:22:45;42;40;28
55043;PMS5003;54902;50.420;18.854;2023-04-24T02:23:16;42;40;28
55043;PMS5003;54902;50.420;18.854;2023-04-24T02:23:47;42;40;28
55043;PMS5003;54902;50.420;18.854;2023-04-24T02:24:18;42;40;28
55043;PMS5003;54902;50.420;18.854;2023-04-24T02:24:49;42;40;28
55043;PMS5003;54902;50.420;18.854;2023-04-24T02:25:20;42;40;28
55043;PMS5003;54902;50.420;18.854;2023-04-24T02:25:51;35;32;21
55043;PMS5003;54902;50.420;18.854;2023-04-24T02:26:23;35;32;21
55043;PMS5003;54902;50.420;18.854;2023-04-24T02:26:55;35;32;21
55043;PMS5003;54902;50.420;18.854;2023-04-24T02:27:26;35;32;21
55043;PMS5003;54902;50.420;18.854;2023-04-24T02:27:57;35;32;21
55043;PMS5003;54902;50.420;18.854;2023-04-24T02:28:28;35;32;21
55043;PMS5003;54902;50.420;18.854;2023-04-24T02:28:58;35;32;21
55043;PMS5003;54902;50.420;18.854;2023-04-24T02:29:30;42;39;26
55043;PMS5003;54902;50.420;18.854;2023-04-24T02:30:01;42;39;26
55043;PMS5003;54902;50.420;18.854;2023-04-24T02:30:33;42;39;26
55043;PMS5003;54902;50.420;18.854;2023-04-24T02:31:04;42;39;26
55043;PMS5003;54902;50.420;18.854;2023-04-24T02:31:36;42;39;26
55043;PMS5003;54902;50.420;18.854;2023-04-24T02:32:07;42;39;26
55043;PMS5003;54902;50.420;18.854;2023-04-24T02:32:42;42;39;26
55043;PMS5003;54902;50.420;18.854;2023-04-24T02:33:13;42;39;26
55043;PMS5003;54902;50.420;18.854;2023-04-24T02:33:43;42;39;26
55043;PMS5003;54902;50.420;18.854;2023-04-24T02:34:14;42;39;26
55043;PMS5003;54902;50.420;18.854;2023-04-24T02:34:46;45;42;28
55043;PMS5003;54902;50.420;18.854;2023-04-24T02:35:17;45;42;28
55043;PMS5003;54902;50.420;18.854;2023-04-24T02:35:48;45;42;28
55043;PMS5003;54902;50.420;18.854;2023-04-24T02:36:19;45;42;28
55043;PMS5003;54902;50.420;18.854;2023-04-24T02:36:50;45;42;28
55043;PMS5003;54902;50.420;18.854;2023-04-24T02:37:21;45;42;28
55043;PMS5003;54902;50.420;18.854;2023-04-24T02:37:52;45;42;28
55043;PMS5003;54902;50.420;18.854;2023-04-24T02:38:23;45;42;28
55043;PMS5003;54902;50.420;18.854;2023-04-24T02:38:53;45;42;28
55043;PMS5003;54902;50.420;18.854;2023-04-24T02:39:24;45;42;28
55043;PMS5003;54902;50.420;18.854;2023-04-24T02:39:56;45;42;28
55043;PMS5003;54902;50.420;18.854;2023-04-24T02:40:26;45;42;28
55043;PMS5003;54902;50.420;18.854;2023-04-24T02:40:57;45;42;28
55043;PMS5003;54902;50.420;18.854;2023-04-24T02:41:28;45;42;28
55043;PMS5003;54902;50.420;18.854;2023-04-24T02:42:02;45;42;28
55043;PMS5003;54902;50.420;18.854;2023-04-24T02:42:33;45;42;28
55043;PMS5003;54902;50.420;18.854;2023-04-24T02:43:04;45;42;28
55043;PMS5003;54902;50.420;18.854;2023-04-24T02:43:35;45;42;28
55043;PMS5003;54902;50.420;18.854;2023-04-24T02:44:06;45;42;28
55043;PMS5003;54902;50.420;18.854;2023-04-24T02:44:37;45;42;28
55043;PMS5003;54902;50.420;18.854;2023-04-24T02:45:08;45;42;28
55043;PMS5003;54902;50.420;18.854;2023-04-24T02:45:40;21;21;17
55043;PMS5003;54902;50.420;18.854;2023-04-24T02:46:11;21;21;17
55043;PMS5003;54902;50.420;18.854;2023-04-24T02:46:42;21;21;17
55043;PMS5003;54902;50.420;18.854;2023-04-24T02:47:13;21;21;17
55043;PMS5003;54902;50.420;18.854;2023-04-24T02:47:44;21;21;17
55043;PMS5003;54902;50.420;18.854;2023-04-24T02:48:15;21;21;17
55043;PMS5003;54902;50.420;18.854;2023-04-24T02:48:47;21;21;17
55043;PMS5003;54902;50.420;18.854;2023-04-24T02:49:18;21;21;17
55043;PMS5003;54902;50.420;18.854;2023-04-24T02:49:49;21;21;17
55043;PMS5003;54902;50.420;18.854;2023-04-24T02:50:20;31;31;24
55043;PMS5003;54902;50.420;18.854;2023-04-24T02:50:51;31;31;24
55043;PMS5003;54902;50.420;18.854;2023-04-24T02:51:22;31;31;24
55043;PMS5003;54902;50.420;18.854;2023-04-24T02:51:53;31;31;24
55043;PMS5003;54902;50.420;18.854;2023-04-24T02:52:23;31;31;24
55043;PMS5003;54902;50.420;18.854;2023-04-24T02:52:54;31;31;24
55043;PMS5003;54902;50.420;18.854;2023-04-24T02:53:25;31;31;24
55043;PMS5003;54902;50.420;18.854;2023-04-24T02:53:56;31;31;24
55043;PMS5003;54902;50.420;18.854;2023-04-24T02:54:27;31;31;24
55043;PMS5003;54902;50.420;18.854;2023-04-24T02:54:58;31;31;24
55043;PMS5003;54902;50.420;18.854;2023-04-24T02:55:29;31;31;24
55043;PMS5003;54902;50.420;18.854;2023-04-24T02:56:00;31;31;24
55043;PMS5003;54902;50.420;18.854;2023-04-24T02:56:31;31;31;24
55043;PMS5003;54902;50.420;18.854;2023-04-24T02:57:02;31;31;24
55043;PMS5003;54902;50.420;18.854;2023-04-24T02:57:33;31;31;24
55043;PMS5003;54902;50.420;18.854;2023-04-24T02:58:04;31;31;24
55043;PMS5003;54902;50.420;18.854;2023-04-24T02:58:36;31;31;24
55043;PMS5003;54902;50.420;18.854;2023-04-24T02:59:07;31;31;24
55043;PMS5003;54902;50.420;18.854;2023-04-24T02:59:38;31;31;24
55043;PMS5003;54902;50.420;18.854;2023-04-24T03:00:09;31;31;24
55043;PMS5003;54902;50.420;18.854;2023-04-24T03:00:41;31;31;24
55043;PMS5003;54902;50.420;18.854;2023-04-24T03:01:13;31;31;24
55043;PMS5003;54902;50.420;18.854;2023-04-24T03:01:45;31;31;24
55043;PMS5003;54902;50.420;18.854;2023-04-24T03:02:16;31;31;24
55043;PMS5003;54902;50.420;18.854;2023-04-24T03:02:47;31;31;24
55043;PMS5003;54902;50.420;18.854;2023-04-24T03:03:19;25;25;18
55043;PMS5003;54902;50.420;18.854;2023-04-24T03:03:50;25;25;18
55043;PMS5003;54902;50.420;18.854;2023-04-24T03:04:21;25;25;18
55043;PMS5003;54902;50.420;18.854;2023-04-24T03:04:53;25;25;18
55043;PMS5003;54902;50.420;18.854;2023-04-24T03:05:25;25;25;18
55043;PMS5003;54902;50.420;18.854;2023-04-24T03:05:57;33;33;20
55043;PMS5003;54902;50.420;18.854;2023-04-24T03:06:29;33;33;20
55043;PMS5003;54902;50.420;18.854;2023-04-24T03:07:02;33;33;20
55043;PMS5003;54902;50.420;18.854;2023-04-24T03:07:35;33;33;20
55043;PMS5003;54902;50.420;18.854;2023-04-24T03:08:07;33;33;20
55043;PMS5003;54902;50.420;18.854;2023-04-24T03:08:38;33;33;20
55043;PMS5003;54902;50.420;18.854;2023-04-24T03:09:08;33;33;20
55043;PMS5003;54902;50.420;18.854;2023-04-24T03:09:40;33;33;20
55043;PMS5003;54902;50.420;18.854;2023-04-24T03:10:11;33;33;20
55043;PMS5003;54902;50.420;18.854;2023-04-24T03:10:42;33;33;20
55043;PMS5003;54902;50.420;18.854;2023-04-24T03:11:13;38;38;23
55043;PMS5003;54902;50.420;18.854;2023-04-24T03:11:44;38;38;23
55043;PMS5003;54902;50.420;18.854;2023-04-24T03:12:15;38;38;23
55043;PMS5003;54902;50.420;18.854;2023-04-24T03:12:48;38;38;23
55043;PMS5003;54902;50.420;18.854;2023-04-24T03:13:19;38;38;23
55043;PMS5003;54902;50.420;18.854;2023-04-24T03:13:50;38;38;23
55043;PMS5003;54902;50.420;18.854;2023-04-24T03:14:21;38;38;23
55043;PMS5003;54902;50.420;18.854;2023-04-24T03:14:52;33;32;19
55043;PMS5003;54902;50.420;18.854;2023-04-24T03:15:23;33;32;19
55043;PMS5003;54902;50.420;18.854;2023-04-24T03:15:54;33;32;19
55043;PMS5003;54902;50.420;18.854;2023-04-24T03:16:25;29;27;18
55043;PMS5003;54902;50.420;18.854;2023-04-24T03:16:56;29;27;18
55043;PMS5003;54902;50.420;18.854;2023-04-24T03:17:27;29;27;18
55043;PMS5003;54902;50.420;18.854;2023-04-24T03:17:57;29;27;18
55043;PMS5003;54902;50.420;18.854;2023-04-24T03:18:29;29;27;18
55043;PMS5003;54902;50.420;18.854;2023-04-24T03:19:00;29;27;18
55043;PMS5003;54902;50.420;18.854;2023-04-24T03:19:31;29;27;18